sensor_id;sensor_type;location;lat;lon;timestamp;P1;durP1;ratioP1;P2;durP2;ratioP2
61527;SDS011;47395;42.032;-8.634;2023-02-24T00:01:17;1246.22;;;999.90;;
61527;SDS011;47395;42.032;-8.634;2023-02-24T00:03:24;1242.57;;;999.90;;
61527;SDS011;47395;42.032;-8.634;2023-02-24T00:07:25;1211.38;;;999.90;;
61527;SDS011;47395;42.032;-8.634;2023-02-24T00:09:29;1215.13;;;999.90;;
61527;SDS011;47395;42.032;-8.634;2023-02-24T00:11:33;1228.82;;;999.90;;
61527;SDS011;47395;42.032;-8.634;2023-02-24T00:13:35;1256.53;;;999.90;;
61527;SDS011;47395;42.032;-8.634;2023-02-24T00:17:37;1198.82;;;999.90;;
61527;SDS011;47395;42.032;-8.634;2023-02-24T00:19:38;1260.80;;;999.90;;
61527;SDS011;47395;42.032;-8.634;2023-02-24T00:21:39;1205.82;;;999.90;;
61527;SDS011;47395;42.032;-8.634;2023-02-24T00:23:41;1248.60;;;999.90;;
61527;SDS011;47395;42.032;-8.634;2023-02-24T00:25:43;1251.05;;;999.90;;
61527;SDS011;47395;42.032;-8.634;2023-02-24T00:29:44;1191.03;;;999.90;;
61527;SDS011;47395;42.032;-8.634;2023-02-24T00:31:48;1231.30;;;999.90;;
61527;SDS011;47395;42.032;-8.634;2023-02-24T00:33:59;1197.57;;;999.90;;
61527;SDS011;47395;42.032;-8.634;2023-02-24T00:36:05;1258.15;;;999.90;;
61527;SDS011;47395;42.032;-8.634;2023-02-24T00:38:11;1237.30;;;999.90;;
61527;SDS011;47395;42.032;-8.634;2023-02-24T00:40:12;1231.75;;;999.90;;
61527;SDS011;47395;42.032;-8.634;2023-02-24T00:42:14;1256.70;;;999.90;;
61527;SDS011;47395;42.032;-8.634;2023-02-24T00:44:16;1248.07;;;999.90;;
61527;SDS011;47395;42.032;-8.634;2023-02-24T00:48:19;1152.38;;;999.90;;
61527;SDS011;47395;42.032;-8.634;2023-02-24T00:50:21;1254.63;;;999.90;;
61527;SDS011;47395;42.032;-8.634;2023-02-24T00:52:24;1216.47;;;999.90;;
61527;SDS011;47395;42.032;-8.634;2023-02-24T00:54:27;1204.93;;;999.90;;
61527;SDS011;47395;42.032;-8.634;2023-02-24T00:58:28;1214.32;;;999.90;;
61527;SDS011;47395;42.032;-8.634;2023-02-24T01:00:31;1195.25;;;999.90;;
61527;SDS011;47395;42.032;-8.634;2023-02-24T01:02:35;1206.30;;;999.90;;
61527;SDS011;47395;42.032;-8.634;2023-02-24T01:04:37;1234.60;;;999.90;;
61527;SDS011;47395;42.032;-8.634;2023-02-24T01:06:41;1230.00;;;999.90;;
61527;SDS011;47395;42.032;-8.634;2023-02-24T01:08:47;1236.75;;;999.90;;
61527;SDS011;47395;42.032;-8.634;2023-02-24T01:10:59;1255.43;;;999.90;;
61527;SDS011;47395;42.032;-8.634;2023-02-24T01:13:19;1261.63;;;999.90;;
61527;SDS011;47395;42.032;-8.634;2023-02-24T01:17:21;1171.40;;;999.90;;
61527;SDS011;47395;42.032;-8.634;2023-02-24T01:19:23;1208.90;;;999.90;;
61527;SDS011;47395;42.032;-8.634;2023-02-24T01:23:34;1173.50;;;999.90;;
61527;SDS011;47395;42.032;-8.634;2023-02-24T01:25:35;1243.10;;;999.90;;
61527;SDS011;47395;42.032;-8.634;2023-02-24T01:29:37;1173.47;;;999.90;;
61527;SDS011;47395;42.032;-8.634;2023-02-24T01:31:38;1212.93;;;999.90;;
61527;SDS011;47395;42.032;-8.634;2023-02-24T01:33:42;1213.45;;;999.90;;
61527;SDS011;47395;42.032;-8.634;2023-02-24T01:35:45;1211.45;;;999.90;;
61527;SDS011;47395;42.032;-8.634;2023-02-24T01:37:47;1231.57;;;999.90;;
61527;SDS011;47395;42.032;-8.634;2023-02-24T01:41:49;1133.38;;;999.90;;
61527;SDS011;47395;42.032;-8.634;2023-02-24T01:43:59;1159.45;;;999.90;;
61527;SDS011;47395;42.032;-8.634;2023-02-24T01:46:29;1180.20;;;999.90;;
61527;SDS011;47395;42.032;-8.634;2023-02-24T01:48:33;1212.40;;;999.90;;
61527;SDS011;47395;42.032;-8.634;2023-02-24T01:52:36;1106.20;;;999.45;;
61527;SDS011;47395;42.032;-8.634;2023-02-24T01:54:42;1147.82;;;999.90;;
61527;SDS011;47395;42.032;-8.634;2023-02-24T01:56:48;1194.40;;;999.90;;
61527;SDS011;47395;42.032;-8.634;2023-02-24T01:58:52;1197.78;;;999.90;;
61527;SDS011;47395;42.032;-8.634;2023-02-24T02:02:54;1130.72;;;999.90;;
61527;SDS011;47395;42.032;-8.634;2023-02-24T02:04:57;1177.45;;;999.90;;
61527;SDS011;47395;42.032;-8.634;2023-02-24T02:07:03;1206.82;;;999.90;;
61527;SDS011;47395;42.032;-8.634;2023-02-24T02:09:05;1180.80;;;999.90;;
61527;SDS011;47395;42.032;-8.634;2023-02-24T02:11:12;1227.82;;;999.90;;
61527;SDS011;47395;42.032;-8.634;2023-02-24T02:17:31;1063.22;;;973.53;;
61527;SDS011;47395;42.032;-8.634;2023-02-24T02:23:57;1171.63;;;999.90;;
61527;SDS011;47395;42.032;-8.634;2023-02-24T02:28:18;1192.28;;;999.90;;
61527;SDS011;47395;42.032;-8.634;2023-02-24T02:33:47;1170.63;;;999.90;;
61527;SDS011;47395;42.032;-8.634;2023-02-24T02:42:24;1182.32;;;999.90;;
61527;SDS011;47395;42.032;-8.634;2023-02-24T02:47:17;1177.05;;;999.90;;
61527;SDS011;47395;42.032;-8.634;2023-02-24T02:49:31;1175.20;;;999.90;;
61527;SDS011;47395;42.032;-8.634;2023-02-24T02:51:41;1194.32;;;999.90;;
61527;SDS011;47395;42.032;-8.634;2023-02-24T02:53:55;1190.60;;;999.90;;
61527;SDS011;47395;42.032;-8.634;2023-02-24T02:56:25;1195.35;;;999.90;;
61527;SDS011;47395;42.032;-8.634;2023-02-24T02:58:33;1198.50;;;999.90;;
61527;SDS011;47395;42.032;-8.634;2023-02-24T03:00:39;1181.75;;;999.90;;
61527;SDS011;47395;42.032;-8.634;2023-02-24T03:02:52;1204.30;;;999.90;;
61527;SDS011;47395;42.032;-8.634;2023-02-24T03:04:58;1211.32;;;999.90;;
61527;SDS011;47395;42.032;-8.634;2023-02-24T03:07:02;1218.18;;;999.90;;
61527;SDS011;47395;42.032;-8.634;2023-02-24T03:09:09;1204.40;;;999.90;;
61527;SDS011;47395;42.032;-8.634;2023-02-24T03:11:17;1237.22;;;999.90;;
61527;SDS011;47395;42.032;-8.634;2023-02-24T03:13:21;1238.90;;;999.90;;
61527;SDS011;47395;42.032;-8.634;2023-02-24T03:15:25;1224.53;;;999.90;;
61527;SDS011;47395;42.032;-8.634;2023-02-24T03:17:31;1201.75;;;999.90;;
61527;SDS011;47395;42.032;-8.634;2023-02-24T03:19:38;1237.07;;;999.90;;
61527;SDS011;47395;42.032;-8.634;2023-02-24T03:21:43;1197.78;;;999.90;;
61527;SDS011;47395;42.032;-8.634;2023-02-24T03:23:48;1246.97;;;999.90;;
61527;SDS011;47395;42.032;-8.634;2023-02-24T03:26:14;1227.05;;;999.90;;
61527;SDS011;47395;42.032;-8.634;2023-02-24T03:28:22;1237.25;;;999.90;;
61527;SDS011;47395;42.032;-8.634;2023-02-24T03:30:43;1269.85;;;999.90;;
61527;SDS011;47395;42.032;-8.634;2023-02-24T03:32:49;1227.85;;;999.90;;
61527;SDS011;47395;42.032;-8.634;2023-02-24T03:34:59;1221.53;;;999.90;;
61527;SDS011;47395;42.032;-8.634;2023-02-24T03:37:09;1228.50;;;999.90;;
61527;SDS011;47395;42.032;-8.634;2023-02-24T03:41:16;1151.50;;;999.90;;
61527;SDS011;47395;42.032;-8.634;2023-02-24T03:43:19;1203.25;;;999.90;;
61527;SDS011;47395;42.032;-8.634;2023-02-24T03:45:27;1201.28;;;999.90;;
61527;SDS011;47395;42.032;-8.634;2023-02-24T03:47:28;1203.47;;;999.90;;
61527;SDS011;47395;42.032;-8.634;2023-02-24T03:49:33;1233.38;;;999.90;;
61527;SDS011;47395;42.032;-8.634;2023-02-24T03:51:37;1213.45;;;999.90;;
61527;SDS011;47395;42.032;-8.634;2023-02-24T03:53:52;1235.05;;;999.90;;
61527;SDS011;47395;42.032;-8.634;2023-02-24T03:56:27;1205.60;;;999.90;;
61527;SDS011;47395;42.032;-8.634;2023-02-24T03:59:07;1210.97;;;999.90;;
61527;SDS011;47395;42.032;-8.634;2023-02-24T04:04:29;1164.05;;;999.90;;
61527;SDS011;47395;42.032;-8.634;2023-02-24T04:06:50;1182.43;;;999.90;;
61527;SDS011;47395;42.032;-8.634;2023-02-24T04:13:48;1169.60;;;999.90;;
61527;SDS011;47395;42.032;-8.634;2023-02-24T04:15:58;1179.18;;;999.90;;
61527;SDS011;47395;42.032;-8.634;2023-02-24T04:18:28;1197.65;;;999.90;;
61527;SDS011;47395;42.032;-8.634;2023-02-24T04:20:32;1193.28;;;999.90;;
61527;SDS011;47395;42.032;-8.634;2023-02-24T04:22:37;1210.75;;;999.90;;
61527;SDS011;47395;42.032;-8.634;2023-02-24T04:24:43;1220.78;;;999.90;;
61527;SDS011;47395;42.032;-8.634;2023-02-24T04:26:48;1211.68;;;999.90;;
61527;SDS011;47395;42.032;-8.634;2023-02-24T04:28:52;1187.55;;;999.90;;
61527;SDS011;47395;42.032;-8.634;2023-02-24T04:30:56;1241.95;;;999.90;;
61527;SDS011;47395;42.032;-8.634;2023-02-24T04:33:00;1222.28;;;999.90;;
61527;SDS011;47395;42.032;-8.634;2023-02-24T04:35:05;1180.40;;;999.90;;
61527;SDS011;47395;42.032;-8.634;2023-02-24T04:37:09;1190.50;;;999.90;;
61527;SDS011;47395;42.032;-8.634;2023-02-24T04:41:15;1151.78;;;999.90;;
61527;SDS011;47395;42.032;-8.634;2023-02-24T04:43:20;1206.05;;;999.90;;
61527;SDS011;47395;42.032;-8.634;2023-02-24T04:47:23;1140.13;;;999.90;;
61527;SDS011;47395;42.032;-8.634;2023-02-24T04:49:24;1219.45;;;999.90;;
61527;SDS011;47395;42.032;-8.634;2023-02-24T04:53:26;1163.07;;;999.90;;
61527;SDS011;47395;42.032;-8.634;2023-02-24T04:55:28;1196.90;;;999.90;;
61527;SDS011;47395;42.032;-8.634;2023-02-24T04:57:32;1179.45;;;999.90;;
61527;SDS011;47395;42.032;-8.634;2023-02-24T04:59:36;1223.82;;;999.90;;
61527;SDS011;47395;42.032;-8.634;2023-02-24T05:04:01;1121.90;;;999.90;;
61527;SDS011;47395;42.032;-8.634;2023-02-24T05:08:06;1118.60;;;999.90;;
61527;SDS011;47395;42.032;-8.634;2023-02-24T05:10:09;1154.32;;;999.90;;
61527;SDS011;47395;42.032;-8.634;2023-02-24T05:12:10;1211.47;;;999.90;;
61527;SDS011;47395;42.032;-8.634;2023-02-24T05:14:11;1217.75;;;999.90;;
61527;SDS011;47395;42.032;-8.634;2023-02-24T05:16:15;1235.35;;;999.90;;
61527;SDS011;47395;42.032;-8.634;2023-02-24T05:18:17;1209.03;;;999.90;;
61527;SDS011;47395;42.032;-8.634;2023-02-24T05:20:18;1210.18;;;999.90;;
61527;SDS011;47395;42.032;-8.634;2023-02-24T05:22:37;1158.10;;;999.90;;
61527;SDS011;47395;42.032;-8.634;2023-02-24T05:26:40;1111.55;;;999.45;;
61527;SDS011;47395;42.032;-8.634;2023-02-24T05:30:43;1135.80;;;999.90;;
61527;SDS011;47395;42.032;-8.634;2023-02-24T05:34:44;1112.28;;;999.90;;
61527;SDS011;47395;42.032;-8.634;2023-02-24T05:36:46;1176.78;;;999.90;;
61527;SDS011;47395;42.032;-8.634;2023-02-24T05:38:49;1205.68;;;999.90;;
61527;SDS011;47395;42.032;-8.634;2023-02-24T05:41:02;1213.50;;;999.90;;
61527;SDS011;47395;42.032;-8.634;2023-02-24T05:45:08;1172.38;;;999.90;;
61527;SDS011;47395;42.032;-8.634;2023-02-24T05:47:10;1181.00;;;999.90;;
61527;SDS011;47395;42.032;-8.634;2023-02-24T05:51:19;1151.30;;;999.90;;
61527;SDS011;47395;42.032;-8.634;2023-02-24T05:53:21;1191.20;;;999.90;;
61527;SDS011;47395;42.032;-8.634;2023-02-24T05:55:22;1213.28;;;999.90;;
61527;SDS011;47395;42.032;-8.634;2023-02-24T05:59:26;1182.90;;;999.90;;
61527;SDS011;47395;42.032;-8.634;2023-02-24T06:01:32;1260.30;;;999.90;;
61527;SDS011;47395;42.032;-8.634;2023-02-24T06:03:35;1218.88;;;999.90;;
61527;SDS011;47395;42.032;-8.634;2023-02-24T06:07:38;1152.57;;;999.90;;
61527;SDS011;47395;42.032;-8.634;2023-02-24T06:09:40;1207.70;;;999.90;;
61527;SDS011;47395;42.032;-8.634;2023-02-24T06:11:42;1225.03;;;999.90;;
61527;SDS011;47395;42.032;-8.634;2023-02-24T06:13:44;1230.80;;;999.90;;
61527;SDS011;47395;42.032;-8.634;2023-02-24T06:15:53;1240.65;;;999.90;;
61527;SDS011;47395;42.032;-8.634;2023-02-24T06:17:54;1241.43;;;999.90;;
61527;SDS011;47395;42.032;-8.634;2023-02-24T06:21:56;1159.10;;;999.90;;
61527;SDS011;47395;42.032;-8.634;2023-02-24T06:24:01;1235.25;;;999.90;;
61527;SDS011;47395;42.032;-8.634;2023-02-24T06:26:02;1215.78;;;999.90;;
61527;SDS011;47395;42.032;-8.634;2023-02-24T06:28:04;1245.18;;;999.90;;
61527;SDS011;47395;42.032;-8.634;2023-02-24T06:30:05;1212.55;;;999.90;;
61527;SDS011;47395;42.032;-8.634;2023-02-24T06:32:09;1219.35;;;999.90;;
61527;SDS011;47395;42.032;-8.634;2023-02-24T06:34:11;1203.03;;;999.90;;
61527;SDS011;47395;42.032;-8.634;2023-02-24T06:36:17;1205.13;;;999.90;;
61527;SDS011;47395;42.032;-8.634;2023-02-24T06:38:19;1206.78;;;999.90;;
61527;SDS011;47395;42.032;-8.634;2023-02-24T06:42:21;1167.53;;;999.90;;
61527;SDS011;47395;42.032;-8.634;2023-02-24T06:46:24;1119.72;;;999.90;;
61527;SDS011;47395;42.032;-8.634;2023-02-24T06:50:27;1127.15;;;999.90;;
61527;SDS011;47395;42.032;-8.634;2023-02-24T06:54:30;1144.00;;;999.90;;
61527;SDS011;47395;42.032;-8.634;2023-02-24T06:56:34;1180.95;;;999.90;;
61527;SDS011;47395;42.032;-8.634;2023-02-24T06:58:38;1171.72;;;999.90;;
61527;SDS011;47395;42.032;-8.634;2023-02-24T07:02:39;1118.50;;;999.90;;
61527;SDS011;47395;42.032;-8.634;2023-02-24T07:06:44;1144.97;;;999.90;;
61527;SDS011;47395;42.032;-8.634;2023-02-24T07:08:50;1174.72;;;999.90;;
61527;SDS011;47395;42.032;-8.634;2023-02-24T07:10:55;1216.07;;;999.90;;
61527;SDS011;47395;42.032;-8.634;2023-02-24T07:12:59;1187.00;;;999.90;;
61527;SDS011;47395;42.032;-8.634;2023-02-24T07:17:00;1132.57;;;999.90;;
61527;SDS011;47395;42.032;-8.634;2023-02-24T07:19:04;1186.13;;;999.90;;
61527;SDS011;47395;42.032;-8.634;2023-02-24T07:21:10;1167.43;;;999.90;;
61527;SDS011;47395;42.032;-8.634;2023-02-24T07:25:12;1133.45;;;999.90;;
61527;SDS011;47395;42.032;-8.634;2023-02-24T07:27:29;1157.82;;;999.90;;
61527;SDS011;47395;42.032;-8.634;2023-02-24T07:31:32;1150.82;;;999.90;;
61527;SDS011;47395;42.032;-8.634;2023-02-24T07:33:36;1216.18;;;999.90;;
61527;SDS011;47395;42.032;-8.634;2023-02-24T07:35:38;1170.63;;;999.90;;
61527;SDS011;47395;42.032;-8.634;2023-02-24T07:37:39;1186.20;;;999.90;;
61527;SDS011;47395;42.032;-8.634;2023-02-24T07:39:40;1222.95;;;999.90;;
61527;SDS011;47395;42.032;-8.634;2023-02-24T07:41:42;1243.55;;;999.90;;
61527;SDS011;47395;42.032;-8.634;2023-02-24T07:43:49;1245.85;;;999.90;;
61527;SDS011;47395;42.032;-8.634;2023-02-24T07:45:51;1193.82;;;999.90;;
61527;SDS011;47395;42.032;-8.634;2023-02-24T07:49:52;1174.78;;;999.90;;
61527;SDS011;47395;42.032;-8.634;2023-02-24T07:51:54;1232.78;;;999.90;;
61527;SDS011;47395;42.032;-8.634;2023-02-24T07:53:57;1225.35;;;999.90;;
61527;SDS011;47395;42.032;-8.634;2023-02-24T07:55:59;1259.03;;;999.90;;
61527;SDS011;47395;42.032;-8.634;2023-02-24T07:58:02;1274.82;;;999.90;;
61527;SDS011;47395;42.032;-8.634;2023-02-24T08:00:05;1243.88;;;999.90;;
61527;SDS011;47395;42.032;-8.634;2023-02-24T08:02:18;1254.03;;;999.90;;
61527;SDS011;47395;42.032;-8.634;2023-02-24T08:04:19;1262.68;;;999.90;;
61527;SDS011;47395;42.032;-8.634;2023-02-24T08:06:22;1237.80;;;999.90;;
61527;SDS011;47395;42.032;-8.634;2023-02-24T08:08:32;1274.25;;;999.90;;
61527;SDS011;47395;42.032;-8.634;2023-02-24T08:10:53;1295.63;;;999.90;;
61527;SDS011;47395;42.032;-8.634;2023-02-24T08:13:03;1220.13;;;999.90;;
61527;SDS011;47395;42.032;-8.634;2023-02-24T08:15:04;1254.90;;;999.90;;
61527;SDS011;47395;42.032;-8.634;2023-02-24T08:17:19;1266.18;;;999.90;;
61527;SDS011;47395;42.032;-8.634;2023-02-24T08:19:21;1263.78;;;999.90;;
61527;SDS011;47395;42.032;-8.634;2023-02-24T08:21:22;1270.32;;;999.90;;
61527;SDS011;47395;42.032;-8.634;2023-02-24T08:23:23;1269.15;;;999.90;;
61527;SDS011;47395;42.032;-8.634;2023-02-24T08:25:26;1263.40;;;999.90;;
61527;SDS011;47395;42.032;-8.634;2023-02-24T08:27:37;1263.38;;;999.90;;
61527;SDS011;47395;42.032;-8.634;2023-02-24T08:29:39;1256.00;;;999.90;;
61527;SDS011;47395;42.032;-8.634;2023-02-24T08:31:57;1274.05;;;999.90;;
61527;SDS011;47395;42.032;-8.634;2023-02-24T08:33:58;1243.43;;;999.90;;
61527;SDS011;47395;42.032;-8.634;2023-02-24T08:35:59;1242.65;;;999.90;;
61527;SDS011;47395;42.032;-8.634;2023-02-24T08:38:02;1248.95;;;999.90;;
61527;SDS011;47395;42.032;-8.634;2023-02-24T08:40:26;1286.55;;;999.90;;
61527;SDS011;47395;42.032;-8.634;2023-02-24T08:42:47;1259.10;;;999.90;;
61527;SDS011;47395;42.032;-8.634;2023-02-24T08:44:49;1315.10;;;999.90;;
61527;SDS011;47395;42.032;-8.634;2023-02-24T08:46:53;1288.40;;;999.90;;
61527;SDS011;47395;42.032;-8.634;2023-02-24T08:48:55;1263.90;;;999.90;;
61527;SDS011;47395;42.032;-8.634;2023-02-24T08:51:00;1304.03;;;999.90;;
61527;SDS011;47395;42.032;-8.634;2023-02-24T08:53:11;1287.80;;;999.90;;
61527;SDS011;47395;42.032;-8.634;2023-02-24T08:55:18;1293.20;;;999.90;;
61527;SDS011;47395;42.032;-8.634;2023-02-24T08:57:22;1304.40;;;999.90;;
61527;SDS011;47395;42.032;-8.634;2023-02-24T08:59:25;1324.82;;;999.90;;
61527;SDS011;47395;42.032;-8.634;2023-02-24T09:01:37;1293.03;;;999.90;;
61527;SDS011;47395;42.032;-8.634;2023-02-24T09:03:39;1274.50;;;999.90;;
61527;SDS011;47395;42.032;-8.634;2023-02-24T09:05:45;1257.30;;;999.90;;
61527;SDS011;47395;42.032;-8.634;2023-02-24T09:07:46;1279.60;;;999.90;;
61527;SDS011;47395;42.032;-8.634;2023-02-24T09:09:54;1282.65;;;999.90;;
61527;SDS011;47395;42.032;-8.634;2023-02-24T09:11:56;1323.25;;;999.90;;
61527;SDS011;47395;42.032;-8.634;2023-02-24T09:13:58;1320.43;;;999.90;;
61527;SDS011;47395;42.032;-8.634;2023-02-24T09:16:01;1319.70;;;999.90;;
61527;SDS011;47395;42.032;-8.634;2023-02-24T09:18:03;1335.85;;;999.90;;
61527;SDS011;47395;42.032;-8.634;2023-02-24T09:20:10;1333.30;;;999.90;;
61527;SDS011;47395;42.032;-8.634;2023-02-24T09:22:28;1304.05;;;999.90;;
61527;SDS011;47395;42.032;-8.634;2023-02-24T09:24:31;1301.68;;;999.90;;
61527;SDS011;47395;42.032;-8.634;2023-02-24T09:26:33;1339.55;;;999.90;;
61527;SDS011;47395;42.032;-8.634;2023-02-24T09:28:42;1324.97;;;999.90;;
61527;SDS011;47395;42.032;-8.634;2023-02-24T09:31:11;1285.47;;;999.90;;
61527;SDS011;47395;42.032;-8.634;2023-02-24T09:33:17;1415.30;;;999.90;;
61527;SDS011;47395;42.032;-8.634;2023-02-24T09:35:40;1366.30;;;999.90;;
61527;SDS011;47395;42.032;-8.634;2023-02-24T09:37:42;1488.70;;;999.90;;
61527;SDS011;47395;42.032;-8.634;2023-02-24T09:39:43;1362.97;;;999.90;;
61527;SDS011;47395;42.032;-8.634;2023-02-24T09:42:16;1478.53;;;999.90;;
61527;SDS011;47395;42.032;-8.634;2023-02-24T09:44:33;1428.45;;;999.90;;
61527;SDS011;47395;42.032;-8.634;2023-02-24T09:47:17;1373.32;;;999.90;;
61527;SDS011;47395;42.032;-8.634;2023-02-24T09:52:24;1413.90;;;999.90;;
61527;SDS011;47395;42.032;-8.634;2023-02-24T09:54:46;1435.47;;;999.90;;
61527;SDS011;47395;42.032;-8.634;2023-02-24T09:57:10;1451.10;;;999.90;;
61527;SDS011;47395;42.032;-8.634;2023-02-24T09:59:53;1414.70;;;999.90;;
61527;SDS011;47395;42.032;-8.634;2023-02-24T10:05:12;1411.35;;;999.90;;
61527;SDS011;47395;42.032;-8.634;2023-02-24T10:07:38;1353.15;;;999.90;;
61527;SDS011;47395;42.032;-8.634;2023-02-24T10:12:30;1535.15;;;999.90;;
61527;SDS011;47395;42.032;-8.634;2023-02-24T10:14:44;1636.97;;;999.90;;
61527;SDS011;47395;42.032;-8.634;2023-02-24T10:16:52;1570.28;;;999.90;;
61527;SDS011;47395;42.032;-8.634;2023-02-24T10:19:23;1664.93;;;999.90;;
61527;SDS011;47395;42.032;-8.634;2023-02-24T10:21:29;1654.38;;;999.90;;
61527;SDS011;47395;42.032;-8.634;2023-02-24T10:26:40;1902.45;;;999.90;;
61527;SDS011;47395;42.032;-8.634;2023-02-24T10:28:49;1997.00;;;999.90;;
61527;SDS011;47395;42.032;-8.634;2023-02-24T10:31:08;1999.90;;;999.90;;
61527;SDS011;47395;42.032;-8.634;2023-02-24T10:33:28;1966.32;;;999.90;;
61527;SDS011;47395;42.032;-8.634;2023-02-24T10:37:38;1999.90;;;999.90;;
61527;SDS011;47395;42.032;-8.634;2023-02-24T10:39:38;1999.90;;;999.90;;
61527;SDS011;47395;42.032;-8.634;2023-02-24T10:41:50;1950.88;;;999.90;;
61527;SDS011;47395;42.032;-8.634;2023-02-24T10:44:21;1999.90;;;999.90;;
61527;SDS011;47395;42.032;-8.634;2023-02-24T10:46:27;1999.90;;;999.90;;
61527;SDS011;47395;42.032;-8.634;2023-02-24T10:48:36;1967.35;;;999.90;;
61527;SDS011;47395;42.032;-8.634;2023-02-24T10:50:41;1734.75;;;999.90;;
61527;SDS011;47395;42.032;-8.634;2023-02-24T10:52:44;1999.90;;;999.90;;
61527;SDS011;47395;42.032;-8.634;2023-02-24T10:57:42;1999.90;;;999.90;;
61527;SDS011;47395;42.032;-8.634;2023-02-24T10:59:57;1999.90;;;999.90;;
61527;SDS011;47395;42.032;-8.634;2023-02-24T11:02:20;1999.90;;;999.90;;
61527;SDS011;47395;42.032;-8.634;2023-02-24T11:04:46;1877.93;;;999.90;;
61527;SDS011;47395;42.032;-8.634;2023-02-24T11:07:10;1999.90;;;999.90;;
61527;SDS011;47395;42.032;-8.634;2023-02-24T11:11:44;1999.90;;;999.90;;
61527;SDS011;47395;42.032;-8.634;2023-02-24T11:14:13;1999.90;;;999.90;;
61527;SDS011;47395;42.032;-8.634;2023-02-24T11:16:50;1999.90;;;999.90;;
61527;SDS011;47395;42.032;-8.634;2023-02-24T11:19:12;1999.90;;;999.90;;
61527;SDS011;47395;42.032;-8.634;2023-02-24T11:21:13;1999.90;;;999.90;;
61527;SDS011;47395;42.032;-8.634;2023-02-24T11:23:21;1999.90;;;999.90;;
61527;SDS011;47395;42.032;-8.634;2023-02-24T11:25:25;1999.90;;;999.90;;
61527;SDS011;47395;42.032;-8.634;2023-02-24T11:27:34;1999.90;;;999.90;;
61527;SDS011;47395;42.032;-8.634;2023-02-24T11:29:44;1999.90;;;999.90;;
61527;SDS011;47395;42.032;-8.634;2023-02-24T11:36:55;1800.15;;;999.90;;
61527;SDS011;47395;42.032;-8.634;2023-02-24T11:42:11;1999.90;;;999.90;;
61527;SDS011;47395;42.032;-8.634;2023-02-24T11:47:03;1999.90;;;999.90;;
61527;SDS011;47395;42.032;-8.634;2023-02-24T11:51:38;1999.90;;;999.90;;
61527;SDS011;47395;42.032;-8.634;2023-02-24T11:56:15;1999.90;;;999.90;;
61527;SDS011;47395;42.032;-8.634;2023-02-24T11:58:34;1842.70;;;999.90;;
61527;SDS011;47395;42.032;-8.634;2023-02-24T12:00:46;1892.95;;;999.90;;
61527;SDS011;47395;42.032;-8.634;2023-02-24T12:05:43;1999.90;;;999.90;;
61527;SDS011;47395;42.032;-8.634;2023-02-24T12:07:52;1999.90;;;999.90;;
61527;SDS011;47395;42.032;-8.634;2023-02-24T12:10:19;1997.20;;;999.90;;
61527;SDS011;47395;42.032;-8.634;2023-02-24T12:12:27;1999.90;;;999.90;;
61527;SDS011;47395;42.032;-8.634;2023-02-24T12:17:16;1999.90;;;999.90;;
61527;SDS011;47395;42.032;-8.634;2023-02-24T12:19:31;1999.90;;;999.90;;
61527;SDS011;47395;42.032;-8.634;2023-02-24T12:21:37;1999.90;;;999.90;;
61527;SDS011;47395;42.032;-8.634;2023-02-24T12:23:44;1990.45;;;999.90;;
61527;SDS011;47395;42.032;-8.634;2023-02-24T12:28:25;1999.90;;;999.90;;
61527;SDS011;47395;42.032;-8.634;2023-02-24T12:31:12;1999.90;;;999.90;;
61527;SDS011;47395;42.032;-8.634;2023-02-24T12:38:37;1999.90;;;999.90;;
61527;SDS011;47395;42.032;-8.634;2023-02-24T12:41:10;1827.85;;;999.90;;
61527;SDS011;47395;42.032;-8.634;2023-02-24T12:43:42;1999.90;;;999.90;;
61527;SDS011;47395;42.032;-8.634;2023-02-24T12:46:20;1933.05;;;999.90;;
61527;SDS011;47395;42.032;-8.634;2023-02-24T12:48:29;1999.90;;;999.90;;
61527;SDS011;47395;42.032;-8.634;2023-02-24T12:50:52;1999.90;;;999.90;;
61527;SDS011;47395;42.032;-8.634;2023-02-24T12:53:18;1999.90;;;999.90;;
61527;SDS011;47395;42.032;-8.634;2023-02-24T12:55:39;1999.90;;;999.90;;
61527;SDS011;47395;42.032;-8.634;2023-02-24T12:58:10;1999.90;;;999.90;;
61527;SDS011;47395;42.032;-8.634;2023-02-24T13:01:00;1999.90;;;999.90;;
61527;SDS011;47395;42.032;-8.634;2023-02-24T13:05:53;1901.47;;;999.90;;
61527;SDS011;47395;42.032;-8.634;2023-02-24T13:10:46;1999.90;;;999.90;;
61527;SDS011;47395;42.032;-8.634;2023-02-24T13:13:14;1943.55;;;999.90;;
61527;SDS011;47395;42.032;-8.634;2023-02-24T13:15:24;1999.90;;;999.90;;
61527;SDS011;47395;42.032;-8.634;2023-02-24T13:17:26;1999.90;;;999.90;;
61527;SDS011;47395;42.032;-8.634;2023-02-24T13:19:28;1999.90;;;999.90;;
61527;SDS011;47395;42.032;-8.634;2023-02-24T13:21:30;1999.90;;;999.90;;
61527;SDS011;47395;42.032;-8.634;2023-02-24T13:23:32;1999.90;;;999.90;;
61527;SDS011;47395;42.032;-8.634;2023-02-24T13:25:35;1999.90;;;999.90;;
61527;SDS011;47395;42.032;-8.634;2023-02-24T13:27:37;1999.90;;;999.90;;
61527;SDS011;47395;42.032;-8.634;2023-02-24T13:29:41;1999.90;;;999.90;;
61527;SDS011;47395;42.032;-8.634;2023-02-24T13:31:48;1999.90;;;999.90;;
61527;SDS011;47395;42.032;-8.634;2023-02-24T13:33:50;1999.90;;;999.90;;
61527;SDS011;47395;42.032;-8.634;2023-02-24T13:36:03;1999.90;;;999.90;;
61527;SDS011;47395;42.032;-8.634;2023-02-24T13:38:25;1994.50;;;999.90;;
61527;SDS011;47395;42.032;-8.634;2023-02-24T13:40:38;1999.90;;;999.90;;
61527;SDS011;47395;42.032;-8.634;2023-02-24T13:42:38;1999.90;;;999.90;;
61527;SDS011;47395;42.032;-8.634;2023-02-24T13:44:46;1999.90;;;999.90;;
61527;SDS011;47395;42.032;-8.634;2023-02-24T13:47:26;1999.90;;;999.90;;
61527;SDS011;47395;42.032;-8.634;2023-02-24T13:54:22;1999.90;;;999.90;;
61527;SDS011;47395;42.032;-8.634;2023-02-24T13:56:38;1999.90;;;999.90;;
61527;SDS011;47395;42.032;-8.634;2023-02-24T14:01:44;1999.90;;;999.90;;
61527;SDS011;47395;42.032;-8.634;2023-02-24T14:06:25;1999.90;;;999.90;;
61527;SDS011;47395;42.032;-8.634;2023-02-24T14:08:34;1957.38;;;999.90;;
61527;SDS011;47395;42.032;-8.634;2023-02-24T14:10:42;1947.50;;;999.90;;
61527;SDS011;47395;42.032;-8.634;2023-02-24T14:12:45;1999.90;;;999.90;;
61527;SDS011;47395;42.032;-8.634;2023-02-24T14:14:50;1999.90;;;999.90;;
61527;SDS011;47395;42.032;-8.634;2023-02-24T14:16:52;1999.90;;;999.90;;
61527;SDS011;47395;42.032;-8.634;2023-02-24T14:18:54;1999.90;;;999.90;;
61527;SDS011;47395;42.032;-8.634;2023-02-24T14:21:03;1999.90;;;999.90;;
61527;SDS011;47395;42.032;-8.634;2023-02-24T14:23:18;1999.90;;;999.90;;
61527;SDS011;47395;42.032;-8.634;2023-02-24T14:25:33;1999.90;;;999.90;;
61527;SDS011;47395;42.032;-8.634;2023-02-24T14:27:38;1999.90;;;999.90;;
61527;SDS011;47395;42.032;-8.634;2023-02-24T14:29:39;1999.90;;;999.90;;
61527;SDS011;47395;42.032;-8.634;2023-02-24T14:31:40;1999.90;;;999.90;;
61527;SDS011;47395;42.032;-8.634;2023-02-24T14:33:41;1999.90;;;999.90;;
61527;SDS011;47395;42.032;-8.634;2023-02-24T14:35:46;1999.90;;;999.90;;